Time;durP1;ratioP1;P1;durP2;ratioP2;P2;SDS_P1;SDS_P2;PMS_P1;PMS_P2;Temp;Humidity;BMP_temperature;BMP_pressure;BME280_temperature;BME280_humidity;BME280_pressure;Samples;Min_cycle;Max_cycle;Signal;HPM_P1;HPM_P2
2021/01/31 13:34:32;;;;;;;17.53;11.73;;;;;;;2.42;80.02;97551.91;5165587;27;21320;-85
2021/01/31 13:37:00;;;;;;;16.83;12.47;;;;;;;2.87;78.16;97540.84;5148137;27;39799;-82
2021/01/31 13:40:28;;;;;;;15.13;11.87;;;;;;;3.64;75.70;97588.13;5101494;28;42758;-85
2021/01/31 13:42:55;;;;;;;17.50;11.70;;;;;;;3.84;73.89;97569.53;5085866;28;41635;-84
2021/01/31 13:45:23;;;;;;;16.70;12.53;;;;;;;4.08;72.66;97584.81;5102751;28;42115;-82
2021/01/31 13:47:50;;;;;;;15.30;11.73;;;;;;;4.15;71.76;97558.16;5102134;28;38913;-84
2021/01/31 13:50:21;;;;;;;14.33;11.63;;;;;;;4.39;71.19;97586.50;5121842;27;41522;-83
2021/01/31 13:52:48;;;;;;;17.80;12.80;;;;;;;4.40;70.58;97581.19;5103703;27;41921;-85
2021/01/31 13:55:17;;;;;;;16.63;12.57;;;;;;;4.59;70.47;97578.31;5086479;27;40937;-82
2021/01/31 13:57:45;;;;;;;16.07;13.63;;;;;;;4.68;70.55;97573.38;5102169;27;39208;-84
2021/01/31 14:00:20;;;;;;;16.97;13.83;;;;;;;4.57;70.13;97554.00;5107199;27;42554;-85
2021/01/31 14:02:55;;;;;;;15.40;11.13;;;;;;;4.75;69.55;97578.25;5103503;27;43027;-82
2021/01/31 14:05:23;;;;;;;16.63;12.63;;;;;;;4.80;69.07;97578.84;5107153;27;41021;-83
2021/01/31 14:07:50;;;;;;;18.33;12.57;;;;;;;4.69;69.59;97543.63;5086293;28;39950;-84
2021/01/31 14:10:21;;;;;;;17.53;13.33;;;;;;;4.86;68.91;97571.44;5083677;27;43264;-84
2021/01/31 14:13:07;;;;;;;16.50;13.83;;;;;;;4.73;69.32;97538.16;5150758;27;42142;-83
2021/01/31 14:15:37;;;;;;;21.90;18.03;;;;;;;4.68;68.95;97526.19;5158853;27;41992;-83
2021/01/31 14:18:07;;;;;;;16.43;14.07;;;;;;;4.91;68.58;97552.81;5147969;27;40223;-83
2021/01/31 14:20:36;;;;;;;16.03;12.83;;;;;;;4.76;68.97;97522.25;5135280;27;40817;-83
2021/01/31 14:23:23;;;;;;;16.20;12.43;;;;;;;4.61;68.88;97493.41;5113526;27;43996;-83
2021/01/31 14:25:51;;;;;;;16.80;13.87;;;;;;;4.83;69.02;97534.88;5108518;27;42832;-84
2021/01/31 14:28:19;;;;;;;18.50;13.13;;;;;;;4.66;69.16;97522.81;5099240;27;39459;-84
2021/01/31 14:30:46;;;;;;;16.40;12.50;;;;;;;4.64;69.12;97519.44;5087623;27;41784;-84
2021/01/31 14:33:13;;;;;;;16.87;13.03;;;;;;;4.73;68.95;97527.66;5104448;27;42161;-83
2021/01/31 14:35:41;;;;;;;16.97;12.17;;;;;;;4.57;69.28;97518.13;5105263;27;41392;-84
2021/01/31 14:38:08;;;;;;;17.90;12.80;;;;;;;4.57;69.30;97502.41;5096346;27;39310;-83
2021/01/31 14:40:35;;;;;;;17.77;13.47;;;;;;;4.41;69.19;97485.91;5105496;27;41908;-83
2021/01/31 14:43:03;;;;;;;15.57;12.30;;;;;;;4.41;69.84;97491.13;5122996;27;43401;-82
2021/01/31 14:45:34;;;;;;;15.23;11.53;;;;;;;4.53;70.06;97521.84;5091335;28;41613;-85
2021/01/31 14:48:01;;;;;;;15.20;12.03;;;;;;;4.41;69.81;97514.72;5074664;28;40173;-84
2021/01/31 14:50:28;;;;;;;15.60;12.07;;;;;;;4.25;69.84;97487.72;5091948;28;40716;-83
2021/01/31 14:52:56;;;;;;;14.87;11.07;;;;;;;4.37;70.28;97500.09;5075059;28;41925;-82
2021/01/31 14:55:26;;;;;;;16.13;12.17;;;;;;;4.51;70.47;97512.41;5109180;27;41706;-83
2021/01/31 14:57:53;;;;;;;17.17;12.47;;;;;;;4.39;69.91;97498.25;5116274;27;40249;-83
2021/01/31 15:00:23;;;;;;;15.13;11.37;;;;;;;4.38;70.18;97500.94;5116436;27;41067;-84
2021/01/31 15:02:51;;;;;;;18.67;12.57;;;;;;;4.17;70.31;97487.34;5118392;27;43498;-83
2021/01/31 15:05:19;;;;;;;15.77;11.47;;;;;;;4.22;70.43;97498.38;5119676;27;42045;-84
2021/01/31 15:07:46;;;;;;;16.20;12.03;;;;;;;4.20;70.74;97497.66;5120094;27;39061;-83
2021/01/31 15:10:39;;;;;;;16.03;12.27;;;;;;;4.25;70.82;97506.06;5125251;27;41505;-85
2021/01/31 15:13:07;;;;;;;15.07;11.20;;;;;;;4.25;71.06;97506.06;5134739;27;42370;-84
2021/01/31 15:15:36;;;;;;;15.07;11.73;;;;;;;4.16;71.00;97501.38;5152421;27;42037;-83
2021/01/31 15:18:10;;;;;;;12.27;9.83;;;;;;;4.04;71.05;97475.91;5136153;27;41712;-82
2021/01/31 15:20:37;;;;;;;12.83;10.50;;;;;;;4.16;70.81;97504.84;5152424;27;40913;-83
2021/01/31 15:23:05;;;;;;;18.03;12.13;;;;;;;4.11;71.57;97503.41;5135312;27;43111;-82
2021/01/31 15:25:33;;;;;;;18.17;13.20;;;;;;;4.10;71.54;97486.00;5144368;27;41470;-83
2021/01/31 15:28:00;;;;;;;17.50;13.10;;;;;;;4.09;71.63;97481.69;5135633;27;39944;-83
2021/01/31 15:30:30;;;;;;;16.00;11.47;;;;;;;4.10;71.73;97478.97;5119177;27;41207;-83
2021/01/31 15:32:59;;;;;;;14.40;11.57;;;;;;;4.02;72.01;97456.81;5112748;27;43455;-85
2021/01/31 15:35:27;;;;;;;13.77;10.57;;;;;;;3.97;71.72;97447.44;5132485;27;42876;-84
2021/01/31 15:37:54;;;;;;;15.70;11.50;;;;;;;3.99;71.72;97452.59;5132679;27;38902;-83
2021/01/31 15:40:23;;;;;;;16.63;14.43;;;;;;;3.89;71.72;97440.97;5113476;27;41546;-84
2021/01/31 15:42:51;;;;;;;17.27;12.13;;;;;;;3.87;71.67;97442.81;5132351;27;42817;-83
2021/01/31 15:45:22;;;;;;;15.90;11.73;;;;;;;3.82;71.93;97432.63;5129010;27;41446;-85
